Time;durP1;ratioP1;P1;durP2;ratioP2;P2;SDS_P1;SDS_P2;PMS_P1;PMS_P2;Temp;Humidity;BMP_temperature;BMP_pressure;BME280_temperature;BME280_humidity;BME280_pressure;Samples;Min_cycle;Max_cycle;Signal;HPM_P1;HPM_P2
2022/04/26 03:38:18;;;;;;;19.80;14.83;;;12.60;99.90;;;;;;7374494;19;20997;-48
2022/04/26 03:40:47;;;;;;;19.30;14.60;;;12.60;99.90;;;;;;7375290;19;20926;-48
2022/04/26 03:43:19;;;;;;;23.10;15.80;;;12.70;99.90;;;;;;7373095;19;20463;-48
2022/04/26 03:45:52;;;;;;;21.00;15.97;;;12.60;99.90;;;;;;7373876;19;20760;-48
2022/04/26 03:48:27;;;;;;;19.20;14.10;;;12.60;99.90;;;;;;7375247;19;20450;-48
2022/04/26 03:51:00;;;;;;;19.37;14.57;;;12.70;99.90;;;;;;7374916;19;20372;-48
2022/04/26 03:53:32;;;;;;;21.20;14.33;;;12.70;99.90;;;;;;7380369;19;21040;-48
2022/04/26 03:56:01;;;;;;;20.20;14.93;;;12.70;99.90;;;;;;7381312;19;20380;-48
2022/04/26 03:58:31;;;;;;;21.67;16.00;;;12.70;99.90;;;;;;7379822;19;20814;-48
2022/04/26 04:01:00;;;;;;;19.67;14.70;;;12.80;99.90;;;;;;7382321;19;20873;-48
2022/04/26 04:03:32;;;;;;;22.70;14.87;;;12.80;99.90;;;;;;7380205;19;20415;-48
2022/04/26 04:06:04;;;;;;;19.97;15.50;;;12.80;99.90;;;;;;7378392;19;20408;-48
2022/04/26 04:08:33;;;;;;;19.20;14.53;;;12.90;99.90;;;;;;7382231;19;20794;-48
2022/04/26 04:11:03;;;;;;;26.97;16.57;;;12.80;99.90;;;;;;7380927;19;20412;-48
2022/04/26 04:13:37;;;;;;;20.67;14.60;;;12.80;99.90;;;;;;7379716;19;20785;-48
2022/04/26 04:16:08;;;;;;;19.73;15.03;;;12.70;99.90;;;;;;7378820;19;20748;-48
2022/04/26 04:21:22;;;;;;;20.43;14.83;;;12.60;99.90;;;;;;7377572;19;20380;-48
2022/04/26 04:23:54;;;;;;;19.97;14.77;;;12.50;99.90;;;;;;7380382;19;20376;-48
2022/04/26 04:26:24;;;;;;;20.23;14.00;;;12.60;99.90;;;;;;7378909;19;20395;-49
2022/04/26 04:28:54;;;;;;;20.63;13.83;;;12.60;99.90;;;;;;7382186;19;20387;-48
2022/04/26 04:31:23;;;;;;;18.20;12.80;;;12.60;99.90;;;;;;7375789;19;20448;-50
2022/04/26 04:33:55;;;;;;;14.40;11.20;;;12.80;99.90;;;;;;7381036;19;20436;-48
2022/04/26 04:36:28;;;;;;;15.20;10.90;;;12.80;99.90;;;;;;7373973;19;21171;-49
2022/04/26 04:38:57;;;;;;;14.87;10.67;;;12.80;99.90;;;;;;7375645;19;20971;-49
2022/04/26 04:41:35;;;;;;;13.67;11.10;;;12.70;99.90;;;;;;7374800;19;20388;-49
2022/04/26 04:44:07;;;;;;;13.30;10.00;;;12.80;99.90;;;;;;7378568;19;20769;-49
2022/04/26 04:46:39;;;;;;;14.87;11.43;;;12.80;99.90;;;;;;7375437;19;20389;-49
2022/04/26 04:49:13;;;;;;;15.50;12.13;;;12.80;99.90;;;;;;7380176;19;20734;-49
2022/04/26 04:51:42;;;;;;;13.23;10.60;;;12.80;99.90;;;;;;7379819;19;20425;-49
2022/04/26 04:54:14;;;;;;;16.47;11.60;;;12.90;99.90;;;;;;7379034;19;20397;-49
2022/04/26 04:56:46;;;;;;;15.03;11.03;;;12.90;99.90;;;;;;7376067;19;20376;-49
2022/04/26 04:59:19;;;;;;;15.97;11.37;;;12.80;99.90;;;;;;7375526;19;20417;-49
2022/04/26 05:01:48;;;;;;;19.43;12.70;;;12.70;99.90;;;;;;7377873;19;20447;-49
2022/04/26 05:04:20;;;;;;;16.90;12.13;;;12.70;99.90;;;;;;7379389;19;20981;-49
2022/04/26 05:06:52;;;;;;;18.20;12.97;;;12.70;99.90;;;;;;7377655;19;20399;-49
2022/04/26 05:09:22;;;;;;;19.00;14.17;;;12.60;99.90;;;;;;7377510;19;20803;-49
2022/04/26 05:11:52;;;;;;;17.87;12.50;;;12.60;99.90;;;;;;7375837;19;20982;-49
2022/04/26 05:14:24;;;;;;;18.80;13.80;;;12.60;99.90;;;;;;7378821;19;20372;-49
2022/04/26 05:16:54;;;;;;;20.57;14.30;;;12.60;99.90;;;;;;7377916;19;20408;-49
2022/04/26 05:19:30;;;;;;;25.53;15.13;;;12.40;99.90;;;;;;7371803;19;20443;-49
2022/04/26 05:22:00;;;;;;;19.67;13.80;;;12.50;99.90;;;;;;7376946;19;20504;-49
2022/04/26 05:27:21;;;;;;;19.60;14.90;;;12.50;99.90;;;;;;7371846;19;20392;-49
2022/04/26 05:29:53;;;;;;;19.40;14.37;;;12.50;99.90;;;;;;7376859;19;20776;-50
2022/04/26 05:32:24;;;;;;;21.80;14.77;;;12.40;99.90;;;;;;7376046;19;20515;-49
2022/04/26 05:35:01;;;;;;;25.17;15.40;;;12.50;99.90;;;;;;7378008;19;20380;-50
2022/04/26 05:37:34;;;;;;;17.30;13.93;;;12.40;99.90;;;;;;7378247;19;20387;-48
2022/04/26 05:40:04;;;;;;;18.90;14.27;;;12.50;99.90;;;;;;7377448;19;20930;-49
2022/04/26 05:42:40;;;;;;;20.07;13.93;;;12.40;99.90;;;;;;7376208;19;20368;-48
2022/04/26 05:45:10;;;;;;;27.13;13.63;;;12.30;99.90;;;;;;7378745;19;20467;-48
2022/04/26 05:47:43;;;;;;;17.23;12.93;;;12.30;99.90;;;;;;7377099;19;20924;-49
2022/04/26 05:50:18;;;;;;;15.57;12.47;;;12.30;99.90;;;;;;7376922;19;20375;-49
2022/04/26 05:52:52;;;;;;;16.13;11.37;;;12.40;99.90;;;;;;7377786;19;20380;-48
2022/04/26 05:55:21;;;;;;;17.70;12.00;;;12.30;99.90;;;;;;7376894;19;20372;-49
2022/04/26 05:57:53;;;;;;;15.63;11.33;;;12.10;99.90;;;;;;7378280;19;20379;-49
2022/04/26 06:00:26;;;;;;;16.93;12.40;;;12.10;99.90;;;;;;7376171;19;20479;-50
2022/04/26 06:02:56;;;;;;;17.67;12.37;;;12.20;99.90;;;;;;7374576;19;20416;-48
2022/04/26 06:05:30;;;;;;;16.63;12.20;;;12.40;99.90;;;;;;7377765;19;20372;-48
2022/04/26 06:08:00;;;;;;;18.63;13.23;;;12.60;99.90;;;;;;7377667;19;20372;-49
2022/04/26 06:10:30;;;;;;;19.10;13.90;;;12.60;99.90;;;;;;7375433;19;20412;-49
2022/04/26 06:13:01;;;;;;;22.27;14.20;;;12.50;99.90;;;;;;7375177;19;20442;-49
2022/04/26 06:15:33;;;;;;;20.20;14.33;;;12.50;99.90;;;;;;7373631;19;20965;-49
2022/04/26 06:18:05;;;;;;;20.77;14.80;;;12.40;99.90;;;;;;7374205;19;20516;-49
2022/04/26 06:20:40;;;;;;;17.10;13.20;;;12.50;99.90;;;;;;7373653;19;20400;-48
2022/04/26 06:23:09;;;;;;;20.83;14.70;;;12.50;99.90;;;;;;7377656;19;20368;-49
2022/04/26 06:25:39;;;;;;;17.53;13.37;;;12.60;99.90;;;;;;7378300;19;20886;-49
2022/04/26 06:28:09;;;;;;;16.40;12.97;;;12.60;99.90;;;;;;7376744;19;20910;-49
2022/04/26 06:30:40;;;;;;;20.07;13.53;;;12.70;99.90;;;;;;7377517;19;21015;-49
2022/04/26 06:33:10;;;;;;;16.73;12.80;;;12.90;99.90;;;;;;7377209;19;20376;-49
2022/04/26 06:35:44;;;;;;;17.13;12.50;;;12.90;99.70;;;;;;7375593;19;20857;-49
2022/04/26 06:38:19;;;;;;;19.70;14.70;;;13.00;99.90;;;;;;7377084;19;20645;-49
2022/04/26 06:40:54;;;;;;;16.23;12.53;;;13.00;99.90;;;;;;7372851;19;20454;-49
2022/04/26 06:43:27;;;;;;;18.53;13.77;;;13.00;99.90;;;;;;7376306;19;20942;-50
2022/04/26 06:46:01;;;;;;;18.73;13.13;;;12.90;99.90;;;;;;7377878;19;20372;-49
2022/04/26 06:48:30;;;;;;;19.13;14.80;;;12.90;99.60;;;;;;7375490;19;20835;-49
2022/04/26 06:51:05;;;;;;;16.00;13.10;;;12.90;99.90;;;;;;7376714;19;20388;-49
2022/04/26 06:53:35;;;;;;;18.40;13.60;;;12.90;99.60;;;;;;7376871;19;20497;-49
2022/04/26 06:56:04;;;;;;;22.20;13.07;;;12.90;99.90;;;;;;7374318;19;20387;-49
2022/04/26 06:58:37;;;;;;;15.73;12.40;;;12.90;99.90;;;;;;7373563;19;20473;-50
2022/04/26 07:01:07;;;;;;;15.77;11.90;;;12.90;99.70;;;;;;7377256;19;20380;-49
2022/04/26 07:03:41;;;;;;;15.63;12.43;;;13.00;99.90;;;;;;7373430;19;20958;-48
2022/04/26 07:06:13;;;;;;;15.87;11.20;;;13.10;99.80;;;;;;7373540;19;20529;-49
2022/04/26 07:08:42;;;;;;;13.90;10.90;;;13.10;99.70;;;;;;7373795;19;20491;-50
2022/04/26 07:11:14;;;;;;;16.30;12.10;;;13.20;99.90;;;;;;7370811;19;20372;-49
2022/04/26 07:13:43;;;;;;;14.57;10.77;;;13.20;99.40;;;;;;7374899;19;20405;-49
2022/04/26 07:16:15;;;;;;;14.93;11.77;;;13.30;99.10;;;;;;7375432;19;20802;-49
2022/04/26 07:18:45;;;;;;;11.50;9.67;;;13.30;98.20;;;;;;7370035;19;20433;-49
2022/04/26 07:21:19;;;;;;;13.13;10.50;;;13.30;98.50;;;;;;7371419;19;20432;-50
2022/04/26 07:23:48;;;;;;;12.40;11.10;;;13.30;98.80;;;;;;7374891;19;20384;-49
2022/04/26 07:26:20;;;;;;;14.13;11.20;;;13.40;98.70;;;;;;7375428;19;20387;-49
2022/04/26 07:28:50;;;;;;;13.87;11.30;;;13.60;98.30;;;;;;7378343;19;20400;-50
2022/04/26 07:31:22;;;;;;;12.97;10.27;;;13.80;98.60;;;;;;7380750;19;20431;-49
2022/04/26 07:36:36;;;;;;;9.53;8.40;;;14.40;97.50;;;;;;7383650;19;20368;-49
2022/04/26 07:39:05;;;;;;;9.17;8.17;;;14.70;94.90;;;;;;7378982;19;20416;-49
2022/04/26 07:41:35;;;;;;;7.80;6.50;;;14.80;94.30;;;;;;7381284;19;20388;-49
2022/04/26 07:44:05;;;;;;;7.07;6.37;;;14.80;92.50;;;;;;7376940;19;20651;-49
2022/04/26 07:46:34;;;;;;;7.90;7.17;;;14.80;92.90;;;;;;7382280;19;20415;-49
2022/04/26 07:49:04;;;;;;;7.67;6.80;;;14.90;93.20;;;;;;7381656;19;20972;-49
2022/04/26 07:51:36;;;;;;;7.00;6.27;;;14.90;93.50;;;;;;7379791;19;20982;-49
2022/04/26 07:54:06;;;;;;;7.33;6.53;;;15.00;91.90;;;;;;7381259;19;20946;-49
2022/04/26 07:56:36;;;;;;;8.63;6.83;;;15.10;90.40;;;;;;7380616;19;20420;-48
2022/04/26 07:59:08;;;;;;;8.30;7.50;;;15.00;91.30;;;;;;7379878;19;20480;-49
2022/04/26 08:01:38;;;;;;;7.47;6.67;;;15.00;91.70;;;;;;7381795;19;20458;-41
2022/04/26 08:04:10;;;;;;;8.87;7.33;;;15.00;91.60;;;;;;7382204;19;20423;-41
2022/04/26 08:06:42;;;;;;;7.30;6.50;;;14.80;90.40;;;;;;7379746;19;20384;-41
2022/04/26 08:09:12;;;;;;;8.13;7.07;;;14.70;90.60;;;;;;7382266;19;20779;-41
2022/04/26 08:11:41;;;;;;;8.13;7.33;;;14.70;89.40;;;;;;7377577;19;20413;-41
2022/04/26 08:14:11;;;;;;;8.60;7.63;;;14.60;86.90;;;;;;7379496;19;20371;-40
2022/04/26 08:16:41;;;;;;;9.57;7.90;;;14.50;86.60;;;;;;7379845;19;20402;-41
2022/04/26 08:19:15;;;;;;;70.67;17.57;;;14.50;88.80;;;;;;7378101;19;20432;-41
2022/04/26 08:21:50;;;;;;;21.50;9.00;;;14.50;88.90;;;;;;7380144;19;20400;-40
2022/04/26 08:29:51;;;;;;;7.93;6.70;;;14.60;88.20;;;;;;7379638;19;20412;-48
2022/04/26 08:32:22;;;;;;;7.10;6.40;;;14.70;87.20;;;;;;7379474;19;20380;-49
2022/04/26 08:34:53;;;;;;;7.33;6.03;;;14.90;85.90;;;;;;7379721;19;20396;-49
2022/04/26 08:37:26;;;;;;;8.77;7.33;;;14.90;86.10;;;;;;7377989;19;20384;-50
2022/04/26 08:39:58;;;;;;;6.63;5.97;;;15.00;82.10;;;;;;7380302;19;20376;-50
2022/04/26 08:42:38;;;;;;;6.37;5.77;;;15.00;83.40;;;;;;7379123;19;21049;-49
2022/04/26 08:45:10;;;;;;;8.23;6.70;;;15.10;85.30;;;;;;7379597;19;20479;-49
2022/04/26 08:53:12;;;;;;;12.03;7.03;;;15.60;83.20;;;;;;7378829;19;20416;-49
2022/04/26 08:55:45;;;;;;;8.93;7.13;;;15.80;81.10;;;;;;7375318;19;20437;-49
2022/04/26 08:58:15;;;;;;;8.57;6.33;;;15.80;80.30;;;;;;7378466;19;20408;-49
2022/04/26 09:01:06;;;;;;;9.40;8.43;;;15.90;80.00;;;;;;7372174;19;20435;-49
2022/04/26 09:03:37;;;;;;;7.20;6.50;;;16.00;78.00;;;;;;7373157;19;20384;-47
2022/04/26 09:06:08;;;;;;;9.50;6.10;;;16.00;75.30;;;;;;7377218;19;20510;-51
2022/04/26 09:08:42;;;;;;;7.60;6.87;;;15.90;69.90;;;;;;7374512;19;20969;-48
2022/04/26 09:11:34;;;;;;;9.83;6.40;;;15.80;70.30;;;;;;7377127;19;20896;-48
2022/04/26 09:14:04;;;;;;;7.33;6.30;;;15.90;68.90;;;;;;7375258;19;20966;-47
2022/04/26 09:16:38;;;;;;;8.20;5.70;;;15.70;69.10;;;;;;7375340;19;20392;-48
2022/04/26 09:19:08;;;;;;;7.70;6.43;;;15.70;69.00;;;;;;7376515;19;20428;-48
2022/04/26 09:21:38;;;;;;;8.27;6.13;;;15.70;69.30;;;;;;7374769;19;20414;-48
2022/04/26 09:24:12;;;;;;;11.50;6.23;;;15.50;65.70;;;;;;7379068;19;20425;-48
2022/04/26 09:26:43;;;;;;;7.97;5.97;;;15.40;66.70;;;;;;7376702;19;20391;-48
2022/04/26 09:29:21;;;;;;;8.43;6.07;;;15.40;65.90;;;;;;7375786;19;20922;-49
2022/04/26 09:32:04;;;;;;;11.50;6.87;;;15.40;66.40;;;;;;7378474;19;20419;-48
2022/04/26 09:34:40;;;;;;;8.70;6.13;;;15.40;65.60;;;;;;7378061;19;20763;-47
2022/04/26 09:37:10;;;;;;;10.17;6.70;;;15.50;67.60;;;;;;7378159;19;20484;-48
2022/04/26 09:39:44;;;;;;;8.27;6.50;;;15.70;68.10;;;;;;7376025;19;20376;-48
2022/04/26 09:42:31;;;;;;;8.83;5.77;;;15.90;66.80;;;;;;7375450;19;20415;-49
2022/04/26 09:45:07;;;;;;;6.30;5.70;;;16.30;66.60;;;;;;7377423;19;21179;-47
2022/04/26 09:47:43;;;;;;;6.03;5.43;;;16.80;64.30;;;;;;7377510;19;20953;-49
2022/04/26 09:50:15;;;;;;;6.87;5.90;;;17.10;64.00;;;;;;7372126;19;20380;-48
2022/04/26 09:52:45;;;;;;;8.50;5.10;;;17.60;60.30;;;;;;7376269;19;20521;-48
2022/04/26 09:55:22;;;;;;;5.93;4.77;;;18.10;56.10;;;;;;7374264;19;20404;-48
2022/04/26 09:57:54;;;;;;;5.60;4.43;;;18.40;52.50;;;;;;7371968;19;20393;-48
2022/04/26 10:00:24;;;;;;;5.03;4.53;;;18.50;49.80;;;;;;7374857;19;20372;-48
2022/04/26 10:03:02;;;;;;;5.13;4.63;;;19.10;48.70;;;;;;7377014;19;20893;-48
2022/04/26 10:05:38;;;;;;;5.20;4.70;;;19.70;47.90;;;;;;7375473;19;20465;-48
2022/04/26 10:08:10;;;;;;;5.60;4.70;;;20.00;45.00;;;;;;7375375;19;20890;-48
2022/04/26 10:10:43;;;;;;;4.97;4.57;;;19.70;45.70;;;;;;7373336;19;20745;-48
2022/04/26 10:15:58;;;;;;;5.40;4.90;;;18.90;46.10;;;;;;7375193;19;21361;-48
2022/04/26 10:18:30;;;;;;;5.70;4.80;;;18.70;47.60;;;;;;7374592;19;20448;-47
2022/04/26 10:21:03;;;;;;;4.97;4.53;;;18.70;47.60;;;;;;7373069;19;20414;-47
2022/04/26 10:24:14;;;;;;;13.07;4.90;;;18.50;48.40;;;;;;7374817;19;20774;-48
2022/04/26 10:26:47;;;;;;;6.23;4.50;;;18.50;48.30;;;;;;7376096;19;20380;-48
2022/04/26 10:29:27;;;;;;;6.20;4.10;;;18.60;47.80;;;;;;7374907;19;20929;-48
2022/04/26 10:32:02;;;;;;;5.60;4.80;;;18.90;47.40;;;;;;7373490;19;20445;-49
2022/04/26 10:34:35;;;;;;;5.50;4.30;;;19.20;47.20;;;;;;7376723;19;20821;-48
2022/04/26 10:37:37;;;;;;;5.43;4.33;;;20.00;46.00;;;;;;7376836;19;20384;-48
2022/04/26 10:40:12;;;;;;;5.57;4.63;;;22.10;43.10;;;;;;7372966;19;20365;-47
2022/04/26 10:42:42;;;;;;;6.83;4.07;;;23.80;39.10;;;;;;7376233;19;20405;-47
2022/04/26 10:45:13;;;;;;;6.53;4.60;;;23.80;37.80;;;;;;7374169;19;20410;-46
2022/04/26 10:47:42;;;;;;;4.83;4.10;;;23.00;36.90;;;;;;7376128;19;20368;-47
2022/04/26 10:50:33;;;;;;;3.50;3.20;;;21.90;38.40;;;;;;7373206;19;20761;-48
2022/04/26 10:53:25;;;;;;;4.40;3.80;;;21.20;39.30;;;;;;7376314;19;20392;-48
2022/04/26 10:56:02;;;;;;;8.80;4.80;;;21.10;40.00;;;;;;7372652;19;20406;-48
2022/04/26 10:58:31;;;;;;;5.60;3.80;;;21.00;40.50;;;;;;7375246;19;20376;-48
2022/04/26 11:01:01;;;;;;;4.90;4.30;;;20.50;42.00;;;;;;7376219;19;20384;-48
2022/04/26 11:03:30;;;;;;;5.63;5.03;;;20.00;41.90;;;;;;7379651;19;20945;-48
2022/04/26 11:06:05;;;;;;;3.73;3.43;;;19.90;43.10;;;;;;7383971;19;20380;-49
2022/04/26 11:08:44;;;;;;;4.00;3.70;;;21.30;41.80;;;;;;7382217;19;20659;-48
2022/04/26 11:11:15;;;;;;;5.20;3.80;;;22.10;37.70;;;;;;7379984;19;20375;-48
2022/04/26 11:13:45;;;;;;;5.97;3.60;;;21.80;37.20;;;;;;7382893;19;20376;-48
2022/04/26 11:16:18;;;;;;;4.43;3.40;;;21.40;38.30;;;;;;7381947;19;20376;-49
2022/04/26 11:18:47;;;;;;;4.10;3.50;;;20.90;37.10;;;;;;7378986;19;21876;-48
2022/04/26 11:21:19;;;;;;;3.33;3.03;;;20.90;36.90;;;;;;7378212;19;20532;-48
2022/04/26 11:29:34;;;;;;;7.10;6.40;;;18.80;46.50;;;;;;7383505;19;20420;-47
2022/04/26 11:32:06;;;;;;;7.70;6.90;;;18.20;48.80;;;;;;7380094;19;20412;-48
2022/04/26 11:34:47;;;;;;;7.23;6.17;;;17.60;50.40;;;;;;7383185;19;20957;-47
2022/04/26 11:37:18;;;;;;;5.80;5.20;;;18.90;50.00;;;;;;7381332;19;20953;-49
2022/04/26 11:39:53;;;;;;;6.50;5.50;;;21.30;45.00;;;;;;7379463;19;20382;-47
2022/04/26 11:42:24;;;;;;;5.77;5.27;;;23.30;40.40;;;;;;7378417;19;20689;-48
2022/04/26 11:45:01;;;;;;;6.43;5.83;;;23.90;38.50;;;;;;7383370;19;20497;-49
2022/04/26 11:47:48;;;;;;;8.97;5.77;;;23.50;38.50;;;;;;7381255;19;20390;-49
2022/04/26 11:50:19;;;;;;;6.37;5.80;;;22.20;39.70;;;;;;7381027;19;21484;-48
2022/04/26 11:52:50;;;;;;;7.10;5.20;;;21.30;40.80;;;;;;7382420;19;20406;-48
2022/04/26 11:55:26;;;;;;;6.07;5.50;;;20.40;42.90;;;;;;7377368;19;20372;-48
2022/04/26 11:58:06;;;;;;;5.87;5.37;;;19.90;43.80;;;;;;7381471;19;20464;-48
2022/04/26 12:00:38;;;;;;;13.50;5.33;;;19.40;44.80;;;;;;7378510;19;20428;-47
2022/04/26 12:03:09;;;;;;;5.67;5.13;;;18.50;47.30;;;;;;7378852;19;21037;-48
2022/04/26 12:05:42;;;;;;;5.63;5.03;;;18.40;48.20;;;;;;7379746;19;20419;-47
2022/04/26 12:08:12;;;;;;;6.70;4.57;;;19.20;45.50;;;;;;7380032;19;20882;-47
2022/04/26 12:10:48;;;;;;;5.30;4.00;;;20.50;44.00;;;;;;7379854;19;20419;-47
2022/04/26 12:13:31;;;;;;;3.80;3.43;;;22.20;40.30;;;;;;7377353;19;20382;-47
2022/04/26 12:16:18;;;;;;;8.63;3.97;;;22.40;37.00;;;;;;7379555;19;20835;-48
2022/04/26 12:18:52;;;;;;;5.63;4.00;;;22.00;37.90;;;;;;7374845;19;20943;-47
2022/04/26 12:21:22;;;;;;;6.27;5.10;;;21.40;38.50;;;;;;7376102;19;21096;-49
2022/04/26 12:24:13;;;;;;;6.77;4.00;;;20.80;39.00;;;;;;7379437;19;20428;-47
2022/04/26 12:26:57;;;;;;;4.90;4.40;;;20.00;40.30;;;;;;7377684;19;20774;-47
2022/04/26 12:29:27;;;;;;;5.60;5.10;;;19.20;42.40;;;;;;7382060;19;20412;-47
2022/04/26 12:32:00;;;;;;;6.40;5.00;;;18.60;43.50;;;;;;7376066;19;20417;-47
2022/04/26 12:34:32;;;;;;;4.63;4.00;;;18.20;45.20;;;;;;7379527;19;20405;-47
2022/04/26 12:37:07;;;;;;;7.47;6.20;;;18.10;46.50;;;;;;7380111;19;20879;-47
2022/04/26 12:39:48;;;;;;;8.20;4.70;;;17.90;46.90;;;;;;7377908;19;20415;-48
2022/04/26 12:42:34;;;;;;;5.97;4.77;;;17.70;48.10;;;;;;7379486;19;20416;-48
2022/04/26 12:45:08;;;;;;;6.73;4.37;;;17.50;48.80;;;;;;7377611;19;20376;-47
2022/04/26 12:50:35;;;;;;;3.23;2.77;;;16.60;48.30;;;;;;7376843;19;20388;-39
2022/04/26 12:53:07;;;;;;;4.17;3.00;;;16.00;51.20;;;;;;7378241;19;20383;-39
2022/04/26 12:55:38;;;;;;;4.03;3.03;;;15.90;54.60;;;;;;7376061;19;20463;-40
2022/04/26 12:58:11;;;;;;;6.23;3.37;;;15.70;55.40;;;;;;7378672;19;20368;-39
2022/04/26 13:00:42;;;;;;;6.27;3.00;;;15.60;56.70;;;;;;7377794;19;20388;-39
2022/04/26 13:03:14;;;;;;;2.13;1.93;;;15.60;57.20;;;;;;7377024;19;20373;-39
2022/04/26 13:05:45;;;;;;;2.20;2.00;;;15.40;56.10;;;;;;7377081;19;20479;-39
2022/04/26 13:08:18;;;;;;;2.57;2.17;;;15.10;57.50;;;;;;7377992;19;20368;-39
2022/04/26 13:10:49;;;;;;;2.83;2.40;;;15.10;59.20;;;;;;7378785;19;20442;-38
2022/04/26 13:13:21;;;;;;;3.50;2.80;;;15.10;60.00;;;;;;7379515;19;20380;-39
2022/04/26 13:15:54;;;;;;;3.17;2.70;;;15.10;59.20;;;;;;7371786;19;20368;-39
2022/04/26 13:18:23;;;;;;;5.37;2.57;;;15.00;59.30;;;;;;7351449;19;21128;-39
2022/04/26 13:20:54;;;;;;;4.67;2.93;;;15.00;61.20;;;;;;7376128;19;20396;-47
2022/04/26 13:23:29;;;;;;;2.90;2.63;;;15.00;62.90;;;;;;7375621;19;20356;-48
2022/04/26 13:25:59;;;;;;;3.80;3.20;;;15.10;62.00;;;;;;7374511;19;20431;-47
2022/04/26 13:28:31;;;;;;;3.70;2.80;;;15.70;60.50;;;;;;7377838;19;20423;-49
2022/04/26 13:31:03;;;;;;;4.17;3.03;;;16.30;58.00;;;;;;7376042;19;20412;-47
2022/04/26 13:33:36;;;;;;;2.90;2.50;;;16.70;55.70;;;;;;7377190;19;20400;-47
2022/04/26 13:36:08;;;;;;;3.50;2.90;;;17.30;54.70;;;;;;7375723;19;20950;-47
2022/04/26 13:38:39;;;;;;;3.03;2.40;;;17.30;51.80;;;;;;7376516;19;20901;-47
2022/04/26 13:41:12;;;;;;;4.10;2.83;;;17.00;52.20;;;;;;7375782;19;20415;-47
2022/04/26 13:43:44;;;;;;;4.13;2.83;;;17.00;54.40;;;;;;7375516;19;20407;-47
2022/04/26 13:46:13;;;;;;;3.10;2.50;;;17.30;52.90;;;;;;7376432;19;20491;-47
2022/04/26 13:48:43;;;;;;;5.50;2.33;;;17.50;51.20;;;;;;7379919;19;20380;-47
2022/04/26 13:51:12;;;;;;;2.53;2.33;;;17.70;49.50;;;;;;7373932;19;20372;-47
2022/04/26 13:53:42;;;;;;;4.93;2.60;;;17.70;48.80;;;;;;7376679;19;20391;-47
2022/04/26 13:56:11;;;;;;;3.60;2.43;;;17.70;49.70;;;;;;7372573;19;20412;-47
2022/04/26 13:58:43;;;;;;;5.63;4.00;;;17.80;48.70;;;;;;7375635;19;20373;-47
2022/04/26 14:01:17;;;;;;;46.20;11.90;;;17.90;47.70;;;;;;7375694;19;20820;-48
2022/04/26 14:03:47;;;;;;;2.87;2.10;;;17.80;46.80;;;;;;7379338;19;20974;-47
2022/04/26 14:06:18;;;;;;;1.90;1.80;;;17.90;46.50;;;;;;7376533;19;20767;-47
2022/04/26 14:08:49;;;;;;;2.23;1.60;;;18.00;46.10;;;;;;7376954;19;20416;-49
2022/04/26 14:11:21;;;;;;;2.93;2.43;;;18.10;45.90;;;;;;7375862;19;20958;-49
2022/04/26 14:21:59;;;;;;;3.20;2.43;;;17.70;46.20;;;;;;7376699;19;20376;-47
2022/04/26 14:24:31;;;;;;;2.40;2.00;;;17.60;45.90;;;;;;7375447;19;20806;-47
2022/04/26 14:27:01;;;;;;;2.10;1.90;;;17.70;46.10;;;;;;7376040;19;20416;-49
2022/04/26 14:29:33;;;;;;;2.93;2.63;;;17.90;45.70;;;;;;7378523;19;20921;-47
2022/04/26 14:32:03;;;;;;;3.27;2.57;;;17.80;46.00;;;;;;7375924;19;20404;-47
2022/04/26 14:34:36;;;;;;;3.03;2.57;;;17.60;45.50;;;;;;7375080;19;20532;-47
2022/04/26 14:37:06;;;;;;;5.20;3.40;;;17.70;45.90;;;;;;7373574;19;20378;-48
2022/04/26 14:39:36;;;;;;;2.43;2.23;;;17.70;45.60;;;;;;7376950;19;20736;-47
2022/04/26 14:42:08;;;;;;;2.70;2.50;;;17.40;45.70;;;;;;7373390;19;20384;-47
2022/04/26 14:44:40;;;;;;;8.00;3.30;;;17.20;46.60;;;;;;7377918;19;20368;-49
2022/04/26 14:47:13;;;;;;;3.00;2.80;;;17.10;47.00;;;;;;7377740;19;21484;-48
2022/04/26 14:49:46;;;;;;;3.03;2.70;;;16.90;47.00;;;;;;7374655;19;20373;-40
2022/04/26 14:52:21;;;;;;;4.30;2.80;;;16.90;48.20;;;;;;7374769;19;20376;-40
2022/04/26 14:54:50;;;;;;;3.07;2.63;;;17.10;48.20;;;;;;7373180;19;20403;-40
2022/04/26 14:57:21;;;;;;;4.00;3.10;;;17.20;48.10;;;;;;7374853;19;20920;-39
2022/04/26 14:59:53;;;;;;;4.63;2.53;;;17.30;47.00;;;;;;7376310;19;20380;-40
2022/04/26 15:02:23;;;;;;;4.40;2.90;;;17.30;47.00;;;;;;7374074;19;20432;-40
2022/04/26 15:04:52;;;;;;;2.73;2.53;;;17.30;46.70;;;;;;7376556;19;21325;-40
2022/04/26 15:07:22;;;;;;;2.93;2.40;;;17.30;46.20;;;;;;7373411;19;20390;-39
2022/04/26 15:09:52;;;;;;;3.17;2.37;;;17.20;46.10;;;;;;7373913;19;20740;-40
2022/04/26 15:17:52;;;;;;;3.10;2.70;;;16.80;47.00;;;;;;7373336;19;20447;-39
2022/04/26 15:20:24;;;;;;;3.70;3.40;;;16.80;47.30;;;;;;7370641;19;20391;-39
2022/04/26 15:22:53;;;;;;;3.60;2.77;;;16.80;47.70;;;;;;7375288;19;20419;-39
2022/04/26 15:25:25;;;;;;;3.70;2.80;;;16.80;47.30;;;;;;7371108;19;20395;-40
2022/04/26 15:27:54;;;;;;;3.43;2.60;;;16.70;47.40;;;;;;7373486;19;20413;-40
2022/04/26 15:30:29;;;;;;;3.73;3.20;;;16.70;47.60;;;;;;7375353;19;20411;-47
2022/04/26 15:32:58;;;;;;;3.80;2.77;;;16.50;48.10;;;;;;7368695;19;20445;-47
2022/04/26 15:35:28;;;;;;;3.73;3.43;;;16.60;48.70;;;;;;7373374;19;20748;-49
2022/04/26 15:37:57;;;;;;;4.13;2.70;;;16.30;48.20;;;;;;7373306;19;20731;-47
2022/04/26 15:40:27;;;;;;;3.97;3.00;;;16.20;49.00;;;;;;7370610;19;20451;-47
2022/04/26 15:42:56;;;;;;;4.00;3.00;;;16.10;50.50;;;;;;7371677;19;20747;-48
2022/04/26 15:45:28;;;;;;;4.03;3.60;;;16.10;53.70;;;;;;7374135;19;20388;-47
2022/04/26 15:48:00;;;;;;;4.33;3.20;;;15.90;55.70;;;;;;7381157;19;20379;-47
2022/04/26 15:50:32;;;;;;;3.90;3.40;;;15.70;56.90;;;;;;7380518;19;20382;-47
2022/04/26 15:53:04;;;;;;;4.03;3.30;;;15.50;58.80;;;;;;7378132;19;20397;-47
2022/04/26 15:55:36;;;;;;;4.57;3.10;;;15.40;60.00;;;;;;7381706;19;20916;-47
2022/04/26 15:58:10;;;;;;;4.77;2.87;;;15.20;60.50;;;;;;7377911;19;20387;-47
2022/04/26 16:00:45;;;;;;;2.83;2.37;;;14.90;69.70;;;;;;7379949;19;20376;-47
2022/04/26 16:03:17;;;;;;;3.10;2.50;;;14.80;66.40;;;;;;7379946;19;20420;-47
2022/04/26 16:05:49;;;;;;;3.47;2.37;;;15.00;65.00;;;;;;7378206;19;20372;-47
2022/04/26 16:08:18;;;;;;;2.73;2.53;;;15.20;66.80;;;;;;7377989;19;21113;-48
2022/04/26 16:21:41;;;;;;;2.87;2.60;;;15.40;64.50;;;;;;7380245;19;20748;-48
2022/04/26 16:24:10;;;;;;;4.97;2.43;;;15.50;63.10;;;;;;7377881;19;20376;-49
2022/04/26 16:26:40;;;;;;;2.73;2.43;;;15.50;62.00;;;;;;7381605;19;20379;-47
2022/04/26 16:29:12;;;;;;;2.40;2.13;;;15.50;61.00;;;;;;7380804;19;20384;-47
2022/04/26 16:31:45;;;;;;;3.10;2.20;;;15.30;60.20;;;;;;7377258;19;20894;-47
2022/04/26 16:34:14;;;;;;;2.20;2.00;;;15.00;60.00;;;;;;7378322;19;20408;-48
2022/04/26 16:36:46;;;;;;;2.90;1.97;;;14.80;61.00;;;;;;7375391;19;20743;-47
2022/04/26 16:39:16;;;;;;;3.03;2.60;;;14.70;63.00;;;;;;7376516;19;20408;-49
2022/04/26 16:41:45;;;;;;;3.10;2.80;;;14.70;64.30;;;;;;7377862;19;20383;-47
2022/04/26 16:44:20;;;;;;;2.50;2.10;;;14.70;63.70;;;;;;7378006;19;20764;-47
2022/04/26 16:46:55;;;;;;;5.03;2.53;;;14.70;65.10;;;;;;7376117;19;20376;-47
2022/04/26 16:49:26;;;;;;;2.60;2.40;;;14.80;66.20;;;;;;7377161;19;20376;-47
2022/04/26 16:51:56;;;;;;;2.70;2.23;;;14.90;66.10;;;;;;7377755;19;20373;-47
2022/04/26 16:54:28;;;;;;;2.50;2.30;;;14.90;63.50;;;;;;7377193;19;20368;-47
2022/04/26 16:56:57;;;;;;;2.00;1.80;;;14.80;64.00;;;;;;7379819;19;21030;-48
2022/04/26 16:59:30;;;;;;;2.93;2.10;;;14.90;63.70;;;;;;7378023;19;20945;-47
2022/04/26 17:02:02;;;;;;;2.60;2.20;;;14.80;65.10;;;;;;7375193;19;20376;-47
2022/04/26 17:04:32;;;;;;;2.80;2.60;;;14.80;64.40;;;;;;7376300;19;20391;-47
2022/04/26 17:07:04;;;;;;;2.87;2.40;;;14.70;65.00;;;;;;7377561;19;20376;-47
2022/04/26 17:09:36;;;;;;;2.37;1.90;;;14.60;64.60;;;;;;7378768;19;20408;-47
2022/04/26 17:12:11;;;;;;;1.83;1.60;;;14.40;65.50;;;;;;7378301;19;20387;-47
2022/04/26 17:14:41;;;;;;;2.43;1.93;;;14.40;64.10;;;;;;7378559;19;20395;-47
2022/04/26 17:17:17;;;;;;;4.00;2.77;;;14.40;65.80;;;;;;7377283;19;20766;-47
2022/04/26 17:19:47;;;;;;;2.07;1.80;;;14.50;65.20;;;;;;7372530;19;20423;-47
2022/04/26 17:22:16;;;;;;;2.83;1.80;;;14.50;64.50;;;;;;7373480;19;20380;-47
2022/04/26 17:27:30;;;;;;;3.17;2.10;;;14.40;65.40;;;;;;7376087;19;21165;-47
2022/04/26 17:30:00;;;;;;;2.33;2.10;;;14.40;64.60;;;;;;7373776;19;20372;-47
2022/04/26 17:32:35;;;;;;;2.30;2.00;;;14.30;64.90;;;;;;7377263;19;20395;-48
2022/04/26 17:35:09;;;;;;;2.90;1.70;;;14.20;65.30;;;;;;7377984;19;20379;-47
2022/04/26 17:37:43;;;;;;;2.03;1.50;;;14.10;67.10;;;;;;7376136;19;20403;-47
2022/04/26 17:40:15;;;;;;;1.87;1.70;;;14.00;65.60;;;;;;7377019;19;20851;-47
2022/04/26 17:42:45;;;;;;;2.23;1.73;;;13.90;67.40;;;;;;7378496;19;20380;-47